createdAt,value
2023-04-19T00:02:16.873Z,7.85
2023-04-19T00:04:45.219Z,8.32
2023-04-19T00:07:13.484Z,7.13
2023-04-19T00:09:41.002Z,7.70
2023-04-19T00:12:08.500Z,8.65
2023-04-19T00:14:35.919Z,7.60
2023-04-19T00:17:03.729Z,8.43
2023-04-19T00:19:31.224Z,9.23
2023-04-19T00:21:58.869Z,9.60
2023-04-19T00:24:26.356Z,8.85
2023-04-19T00:26:53.790Z,9.50
2023-04-19T00:29:21.140Z,9.13
2023-04-19T00:31:48.595Z,9.10
2023-04-19T00:34:16.223Z,8.85
2023-04-19T00:36:43.802Z,9.68
2023-04-19T00:39:11.497Z,9.35
2023-04-19T00:41:39.279Z,9.32
2023-04-19T00:44:06.821Z,10.23
2023-04-19T00:46:34.415Z,10.70
2023-04-19T00:49:01.874Z,9.80
2023-04-19T00:51:29.889Z,10.18
2023-04-19T00:53:57.652Z,9.68
2023-04-19T00:56:27.210Z,10.05
2023-04-19T00:58:55.651Z,10.50
2023-04-19T01:01:23.673Z,10.43
2023-04-19T01:03:51.374Z,10.43
2023-04-19T01:06:21.514Z,11.15
2023-04-19T01:08:49.084Z,10.35
2023-04-19T01:11:16.451Z,10.45
2023-04-19T01:13:45.730Z,10.60
2023-04-19T01:16:13.237Z,10.65
2023-04-19T01:18:41.285Z,10.30
2023-04-19T01:21:09.265Z,10.93
2023-04-19T01:23:38.954Z,11.02
2023-04-19T01:26:06.562Z,10.45
2023-04-19T01:28:34.062Z,10.52
2023-04-19T01:31:01.624Z,10.63
2023-04-19T01:33:29.068Z,10.98
2023-04-19T01:35:56.525Z,10.10
2023-04-19T01:38:23.952Z,10.20
2023-04-19T01:40:51.445Z,9.77
2023-04-19T01:43:19.089Z,10.02
2023-04-19T01:45:46.664Z,10.20
2023-04-19T01:48:14.053Z,10.63
2023-04-19T01:50:41.661Z,10.32
2023-04-19T01:53:09.077Z,10.07
2023-04-19T01:55:36.521Z,10.23
2023-04-19T01:58:03.974Z,10.15
2023-04-19T02:00:31.539Z,10.98
2023-04-19T02:02:59.189Z,10.52
2023-04-19T02:05:26.751Z,10.80
2023-04-19T02:07:54.666Z,11.85
2023-04-19T02:10:22.165Z,11.65
2023-04-19T02:12:49.616Z,11.52
2023-04-19T02:15:17.054Z,11.90
2023-04-19T02:17:46.681Z,13.45
2023-04-19T02:20:14.469Z,12.15
2023-04-19T02:22:43.807Z,12.13
2023-04-19T02:25:11.996Z,12.60
2023-04-19T02:27:39.403Z,12.50
2023-04-19T02:30:07.198Z,11.88
2023-04-19T02:32:34.888Z,13.15
2023-04-19T02:35:02.314Z,13.50
2023-04-19T02:37:30.289Z,13.48
2023-04-19T02:39:57.851Z,13.48
2023-04-19T02:42:25.352Z,13.82
2023-04-19T02:44:54.435Z,14.45
2023-04-19T02:47:25.005Z,14.27
2023-04-19T02:49:52.660Z,13.63
2023-04-19T02:52:20.794Z,14.32
2023-04-19T02:54:49.116Z,13.30
2023-04-19T02:57:16.511Z,12.57
2023-04-19T02:59:45.221Z,12.48
2023-04-19T03:02:12.689Z,11.77
2023-04-19T03:04:40.379Z,11.32
2023-04-19T03:07:09.329Z,11.25
2023-04-19T03:09:38.070Z,11.63
2023-04-19T03:12:05.874Z,11.65
2023-04-19T03:14:36.427Z,12.20
2023-04-19T03:17:04.902Z,12.13
2023-04-19T03:19:33.739Z,11.30
2023-04-19T03:22:01.234Z,11.55
2023-04-19T03:24:31.258Z,11.48
2023-04-19T03:27:04.395Z,11.55
2023-04-19T03:29:32.405Z,12.73
2023-04-19T03:32:10.021Z,12.45
2023-04-19T03:34:37.547Z,13.10
2023-04-19T03:37:04.949Z,13.68
2023-04-19T03:39:33.458Z,13.93
2023-04-19T03:42:04.360Z,13.90
2023-04-19T03:45:01.047Z,13.50
2023-04-19T03:47:31.132Z,13.25
2023-04-19T03:50:00.256Z,13.75
2023-04-19T03:52:29.558Z,14.30
2023-04-19T03:54:57.098Z,14.95
2023-04-19T03:57:33.654Z,14.18
2023-04-19T04:00:08.884Z,15.65
2023-04-19T04:02:41.454Z,15.55
2023-04-19T04:05:11.118Z,15.60
2023-04-19T04:07:41.496Z,15.15
2023-04-19T04:10:09.617Z,14.85
2023-04-19T04:12:42.619Z,14.90
2023-04-19T04:15:13.615Z,15.55
2023-04-19T04:17:47.309Z,16.10
2023-04-19T04:20:16.566Z,15.27
2023-04-19T04:22:46.579Z,15.73
2023-04-19T04:25:16.905Z,16.40
2023-04-19T04:27:44.441Z,15.82
2023-04-19T04:30:16.061Z,15.52
2023-04-19T04:32:45.110Z,15.00
2023-04-19T04:35:12.772Z,13.70
2023-04-19T04:37:49.754Z,13.18
2023-04-19T04:40:17.555Z,12.60
2023-04-19T04:42:45.638Z,12.60
2023-04-19T04:45:13.987Z,13.57
2023-04-19T04:47:46.343Z,13.00
2023-04-19T04:50:15.072Z,12.88
2023-04-19T04:52:42.883Z,11.57
2023-04-19T04:55:14.571Z,11.25
2023-04-19T04:57:44.640Z,11.40
2023-04-19T05:00:36.055Z,10.77
2023-04-19T05:03:07.998Z,12.25
2023-04-19T05:05:40.187Z,11.07
2023-04-19T05:08:07.868Z,10.63
2023-04-19T05:10:35.541Z,10.82
2023-04-19T05:13:03.576Z,11.13
2023-04-19T05:15:31.999Z,11.85
2023-04-19T05:17:59.656Z,9.65
2023-04-19T05:20:27.840Z,8.38
2023-04-19T05:23:15.764Z,7.93
2023-04-19T05:25:44.101Z,7.78
2023-04-19T05:28:11.595Z,8.35
2023-04-19T05:30:46.927Z,8.57
2023-04-19T05:33:15.077Z,6.70
2023-04-19T05:35:43.208Z,7.40
2023-04-19T05:38:10.638Z,7.88
2023-04-19T05:40:38.922Z,9.38
2023-04-19T05:43:06.600Z,8.07
2023-04-19T05:45:34.095Z,8.02
2023-04-19T05:48:01.656Z,10.80
2023-04-19T05:50:55.089Z,10.10
2023-04-19T05:53:56.709Z,8.23
2023-04-19T05:56:25.986Z,7.97
2023-04-19T05:58:55.717Z,7.70
2023-04-19T06:01:23.838Z,7.43
2023-04-19T06:03:53.706Z,7.10
2023-04-19T06:06:25.726Z,7.05
2023-04-19T06:08:54.737Z,7.80
2023-04-19T06:11:31.503Z,7.20
2023-04-19T06:14:06.282Z,9.57
2023-04-19T06:16:34.014Z,8.00
2023-04-19T06:19:01.764Z,8.57
2023-04-19T06:21:31.678Z,6.97
2023-04-19T06:23:59.364Z,6.60
2023-04-19T06:26:26.876Z,6.60
2023-04-19T06:28:54.393Z,6.45
2023-04-19T06:31:21.926Z,6.63
2023-04-19T06:33:49.503Z,6.43
2023-04-19T06:36:16.889Z,7.03
2023-04-19T06:38:47.431Z,6.60
2023-04-19T06:41:14.909Z,6.97
2023-04-19T06:43:42.928Z,7.25
2023-04-19T06:46:10.787Z,7.07
2023-04-19T06:48:38.741Z,7.35
2023-04-19T06:51:06.260Z,7.13
2023-04-19T06:53:34.453Z,6.88
2023-04-19T06:56:04.298Z,6.82
2023-04-19T06:58:34.512Z,7.00
2023-04-19T07:01:02.909Z,7.25
2023-04-19T07:03:30.632Z,6.72
2023-04-19T07:05:58.288Z,6.88
2023-04-19T07:08:32.365Z,6.38
2023-04-19T07:11:06.480Z,6.03
2023-04-19T07:13:33.899Z,6.57
2023-04-19T07:16:04.609Z,6.22
2023-04-19T07:18:32.077Z,5.63
2023-04-19T07:20:59.462Z,6.03
2023-04-19T07:23:27.008Z,5.68
2023-04-19T07:25:54.762Z,5.80
2023-04-19T07:28:22.163Z,5.60
2023-04-19T07:30:49.837Z,6.38
2023-04-19T07:33:17.572Z,5.55
2023-04-19T07:35:45.162Z,4.47
2023-04-19T07:38:12.979Z,4.30
2023-04-19T07:40:40.574Z,4.40
2023-04-19T07:43:07.957Z,4.32
2023-04-19T07:45:36.370Z,4.10
2023-04-19T07:48:03.792Z,4.32
2023-04-19T07:50:31.298Z,3.40
2023-04-19T07:52:58.786Z,3.50
2023-04-19T07:55:26.258Z,3.80
2023-04-19T07:57:53.695Z,3.85
2023-04-19T08:00:24.042Z,3.88
2023-04-19T08:02:51.634Z,3.58
2023-04-19T08:05:20.092Z,3.85
2023-04-19T08:07:47.880Z,3.97
2023-04-19T08:10:15.858Z,4.53
2023-04-19T08:12:57.041Z,3.50
2023-04-19T08:18:01.608Z,4.07
2023-04-19T08:20:29.194Z,3.30
2023-04-19T08:22:57.013Z,3.63
2023-04-19T08:25:28.501Z,3.13
2023-04-19T08:27:57.464Z,3.85
2023-04-19T08:30:25.220Z,3.42
2023-04-19T08:32:54.348Z,4.05
2023-04-19T08:35:25.292Z,4.00
2023-04-19T08:37:52.680Z,4.40
2023-04-19T08:40:20.474Z,3.97
2023-04-19T08:42:47.907Z,3.92
2023-04-19T08:45:27.855Z,4.00
2023-04-19T08:48:01.528Z,4.07
2023-04-19T08:55:34.567Z,3.65
2023-04-19T08:58:03.712Z,4.00
2023-04-19T09:00:33.004Z,4.10
2023-04-19T09:03:00.713Z,4.30
2023-04-19T09:05:28.726Z,4.05
2023-04-19T09:07:56.927Z,4.20
2023-04-19T09:10:29.140Z,3.85
2023-04-19T09:13:03.816Z,3.33
2023-04-19T09:15:41.857Z,3.55
2023-04-19T09:18:10.272Z,3.13
2023-04-19T09:20:38.731Z,3.95
2023-04-19T09:23:07.402Z,3.50
2023-04-19T09:25:52.838Z,3.67
2023-04-19T09:28:23.149Z,3.78
2023-04-19T09:33:47.648Z,4.20
2023-04-19T09:36:27.728Z,3.30
2023-04-19T09:38:55.717Z,4.00
2023-04-19T09:41:23.141Z,3.35
2023-04-19T09:44:06.650Z,3.10
2023-04-19T09:46:39.084Z,3.65
2023-04-19T09:49:23.100Z,3.08
2023-04-19T09:51:58.494Z,3.38
2023-04-19T09:54:32.473Z,3.00
2023-04-19T09:57:01.481Z,3.13
2023-04-19T09:59:29.246Z,3.65
2023-04-19T10:01:57.210Z,3.35
2023-04-19T10:04:38.230Z,3.70
2023-04-19T10:09:52.484Z,3.38
2023-04-19T10:12:51.624Z,3.30
2023-04-19T10:15:12.631Z,3.80
2023-04-19T10:17:40.489Z,3.30
2023-04-19T10:20:10.721Z,3.70
2023-04-19T10:22:39.077Z,3.33
2023-04-19T10:25:11.249Z,3.70
2023-04-19T10:27:38.778Z,3.70
2023-04-19T10:30:12.780Z,3.30
2023-04-19T10:32:44.384Z,3.70
2023-04-19T10:35:17.784Z,3.88
2023-04-19T10:38:03.955Z,3.90
2023-04-19T10:40:50.033Z,3.67
2023-04-19T10:43:18.202Z,4.03
2023-04-19T10:45:46.422Z,3.45
2023-04-19T10:48:44.235Z,3.70
2023-04-19T10:51:16.013Z,4.05
2023-04-19T10:53:47.636Z,4.18
2023-04-19T10:56:15.792Z,4.35
2023-04-19T10:59:03.424Z,3.67
2023-04-19T11:01:42.894Z,3.75
2023-04-19T11:04:10.626Z,4.13
2023-04-19T11:06:39.127Z,4.25
2023-04-19T11:09:07.334Z,3.67
2023-04-19T11:11:38.254Z,3.80
2023-04-19T11:14:08.899Z,3.80
2023-04-19T11:16:45.494Z,4.13
2023-04-19T11:19:20.589Z,4.30
2023-04-19T11:21:48.527Z,4.22
2023-04-19T11:24:18.639Z,4.47
2023-04-19T11:26:46.553Z,4.55
2023-04-19T11:29:14.267Z,4.80
2023-04-19T11:31:44.922Z,4.50
2023-04-19T11:34:12.607Z,4.28
2023-04-19T11:36:52.682Z,4.10
2023-04-19T11:39:21.428Z,4.63
2023-04-19T11:41:48.911Z,4.97
2023-04-19T11:44:20.900Z,4.43
2023-04-19T11:47:05.382Z,5.07
2023-04-19T11:49:34.379Z,4.40
2023-04-19T11:52:05.620Z,4.82
2023-04-19T11:54:34.009Z,4.15
2023-04-19T11:57:05.509Z,4.72
2023-04-19T11:59:33.798Z,4.68
2023-04-19T12:02:11.702Z,5.78
2023-04-19T12:04:40.344Z,4.90
2023-04-19T12:07:08.075Z,4.22
2023-04-19T12:09:36.488Z,4.15
2023-04-19T12:12:04.388Z,3.85
2023-04-19T12:14:35.485Z,4.80
2023-04-19T12:17:13.680Z,4.38
2023-04-19T12:19:51.621Z,3.85
2023-04-19T12:22:20.956Z,3.90
2023-04-19T12:24:48.460Z,4.38
2023-04-19T12:27:18.461Z,5.40
2023-04-19T12:29:46.294Z,4.32
2023-04-19T12:32:15.781Z,3.97
2023-04-19T12:34:43.494Z,3.38
2023-04-19T12:37:11.035Z,4.25
2023-04-19T12:39:38.607Z,3.70
2023-04-19T12:42:06.372Z,4.57
2023-04-19T12:44:33.802Z,3.30
2023-04-19T12:47:01.182Z,4.10
2023-04-19T12:49:28.643Z,4.07
2023-04-19T12:51:57.370Z,3.70
2023-04-19T12:54:25.156Z,3.80
2023-04-19T12:56:53.349Z,3.75
2023-04-19T12:59:22.244Z,4.20
2023-04-19T13:01:50.045Z,3.67
2023-04-19T13:04:18.016Z,3.78
2023-04-19T13:06:45.922Z,3.67
2023-04-19T13:09:14.900Z,3.63
2023-04-19T13:11:42.779Z,4.05
2023-04-19T13:14:10.337Z,4.00
2023-04-19T13:16:37.786Z,3.80
2023-04-19T13:19:05.215Z,4.32
2023-04-19T13:21:32.678Z,3.92
2023-04-19T13:24:00.248Z,3.38
2023-04-19T13:26:27.784Z,3.55
2023-04-19T13:28:56.356Z,3.75
2023-04-19T13:31:23.979Z,3.97
2023-04-19T13:33:51.499Z,4.32
2023-04-19T13:36:19.034Z,4.78
2023-04-19T13:38:46.514Z,4.00
2023-04-19T13:41:14.004Z,3.83
2023-04-19T13:43:41.392Z,4.70
2023-04-19T13:46:08.979Z,4.60
2023-04-19T13:48:36.554Z,3.70
2023-04-19T13:51:03.971Z,4.22
2023-04-19T13:53:31.606Z,4.43
2023-04-19T13:55:59.047Z,4.20
2023-04-19T13:58:26.746Z,4.40
2023-04-19T14:00:54.548Z,4.50
2023-04-19T14:03:23.371Z,4.70
2023-04-19T14:05:51.035Z,4.90
2023-04-19T14:08:18.519Z,4.82
2023-04-19T14:10:46.716Z,4.78
2023-04-19T14:13:14.300Z,3.90
2023-04-19T14:15:41.692Z,3.80
2023-04-19T14:18:09.306Z,3.72
2023-04-19T14:20:36.791Z,4.20
2023-04-19T14:23:04.304Z,4.60
2023-04-19T14:25:31.990Z,4.07
2023-04-19T14:27:59.952Z,4.70
2023-04-19T14:30:28.843Z,4.22
2023-04-19T14:32:58.245Z,4.38
2023-04-19T14:35:25.747Z,4.47
2023-04-19T14:37:53.209Z,5.13
2023-04-19T14:40:21.097Z,4.90
2023-04-19T14:42:48.503Z,4.78
2023-04-19T14:45:15.996Z,5.07
2023-04-19T14:47:43.586Z,4.82
2023-04-19T14:50:13.077Z,4.88
2023-04-19T14:52:40.533Z,5.18
2023-04-19T14:55:08.312Z,5.10
2023-04-19T14:57:36.029Z,5.10
2023-04-19T15:00:03.406Z,4.70
2023-04-19T15:02:31.076Z,5.70
2023-04-19T15:04:58.773Z,4.70
2023-04-19T15:07:26.403Z,5.15
2023-04-19T15:09:53.901Z,5.28
2023-04-19T15:12:21.438Z,5.47
2023-04-19T15:14:48.934Z,4.97
2023-04-19T15:17:16.825Z,4.53
2023-04-19T15:19:46.952Z,4.53
2023-04-19T15:22:14.495Z,4.88
2023-04-19T15:24:41.897Z,4.32
2023-04-19T15:27:09.640Z,4.75
2023-04-19T15:29:39.378Z,4.78
2023-04-19T15:32:06.981Z,4.88
2023-04-19T15:34:34.598Z,4.88
2023-04-19T15:37:02.412Z,6.20
2023-04-19T15:39:29.830Z,5.60
2023-04-19T15:41:58.603Z,6.03
2023-04-19T15:44:26.133Z,5.80
2023-04-19T15:46:53.972Z,6.25
2023-04-19T15:49:21.442Z,5.90
2023-04-19T15:51:48.895Z,6.35
2023-04-19T15:54:16.476Z,6.55
2023-04-19T15:56:43.914Z,6.93
2023-04-19T15:59:11.352Z,7.10
2023-04-19T16:01:39.066Z,7.70
2023-04-19T16:04:06.641Z,8.70
2023-04-19T16:06:34.442Z,7.40
2023-04-19T16:09:01.875Z,7.13
2023-04-19T16:11:29.755Z,7.75
2023-04-19T16:13:57.308Z,7.38
2023-04-19T16:16:27.005Z,7.20
2023-04-19T16:18:54.886Z,7.95
2023-04-19T16:21:22.289Z,7.53
2023-04-19T16:23:49.856Z,7.65
2023-04-19T16:26:17.507Z,7.75
2023-04-19T16:28:45.012Z,7.60
2023-04-19T16:31:12.394Z,7.50
2023-04-19T16:33:40.426Z,7.70
2023-04-19T16:36:07.861Z,8.48
2023-04-19T16:38:35.282Z,8.43
2023-04-19T16:41:14.273Z,8.30
2023-04-19T16:43:42.153Z,8.40
2023-04-19T16:46:09.836Z,8.70
2023-04-19T16:48:37.762Z,8.88
2023-04-19T16:51:05.160Z,9.68
2023-04-19T16:53:32.778Z,9.43
2023-04-19T16:56:00.451Z,10.90
2023-04-19T16:58:27.976Z,10.15
2023-04-19T17:00:55.623Z,10.65
2023-04-19T17:03:23.523Z,9.32
2023-04-19T17:05:51.248Z,8.73
2023-04-19T17:08:18.662Z,5.32
2023-04-19T17:10:46.050Z,4.63
2023-04-19T17:13:13.560Z,5.25
2023-04-19T17:15:41.033Z,4.93
2023-04-19T17:18:08.592Z,5.53
2023-04-19T17:20:36.276Z,4.95
2023-04-19T17:23:03.900Z,4.68
2023-04-19T17:25:31.355Z,5.20
2023-04-19T17:27:58.899Z,7.80
2023-04-19T17:30:26.361Z,6.05
2023-04-19T17:32:53.853Z,5.88
2023-04-19T17:35:21.604Z,5.60
2023-04-19T17:37:49.524Z,6.07
2023-04-19T17:40:16.909Z,6.05
2023-04-19T17:42:44.593Z,6.25
2023-04-19T17:45:12.370Z,6.53
2023-04-19T17:47:40.271Z,6.40
2023-04-19T17:50:09.108Z,6.47
2023-04-19T17:52:36.870Z,7.28
2023-04-19T17:55:04.827Z,7.03
2023-04-19T17:57:33.966Z,6.78
2023-04-19T18:00:06.140Z,6.78
2023-04-19T18:02:36.688Z,6.15
2023-04-19T18:05:04.996Z,7.50
2023-04-19T18:07:32.567Z,8.02
2023-04-19T18:10:00.152Z,7.40
2023-04-19T18:12:28.041Z,8.50
2023-04-19T18:14:55.521Z,7.32
2023-04-19T18:17:22.999Z,7.18
2023-04-19T18:19:50.822Z,6.50
2023-04-19T18:22:19.251Z,6.78
2023-04-19T18:24:47.429Z,7.40
2023-04-19T18:27:15.135Z,9.32
2023-04-19T18:29:42.663Z,7.82
2023-04-19T18:32:10.179Z,8.32
2023-04-19T18:34:37.927Z,7.78
2023-04-19T18:37:14.763Z,7.43
2023-04-19T18:39:42.292Z,7.25
2023-04-19T18:42:09.717Z,13.02
2023-04-19T18:44:52.750Z,12.80
2023-04-19T18:47:26.637Z,9.50
2023-04-19T18:50:04.378Z,9.85
2023-04-19T18:52:32.648Z,7.10
2023-04-19T18:55:00.764Z,6.90
2023-04-19T18:57:34.178Z,7.38
2023-04-19T19:00:02.693Z,6.82
2023-04-19T19:02:32.005Z,7.30
2023-04-19T19:05:01.916Z,8.20
2023-04-19T19:10:02.504Z,7.80
2023-04-19T19:12:37.023Z,7.57
2023-04-19T19:15:06.651Z,7.85
2023-04-19T19:17:34.187Z,7.85
2023-04-19T19:20:02.026Z,7.53
2023-04-19T19:22:29.539Z,8.68
2023-04-19T19:24:57.232Z,9.50
2023-04-19T19:27:24.923Z,8.68
2023-04-19T19:29:52.369Z,9.35
2023-04-19T19:32:19.860Z,8.48
2023-04-19T19:37:18.511Z,7.50
2023-04-19T19:39:46.591Z,6.95
2023-04-19T19:42:16.799Z,7.25
2023-04-19T19:44:44.565Z,8.00
2023-04-19T19:47:12.487Z,7.25
2023-04-19T19:50:02.018Z,7.53
2023-04-19T19:52:31.897Z,7.60
2023-04-19T19:54:59.832Z,7.68
2023-04-19T20:00:13.030Z,7.32
2023-04-19T20:02:54.687Z,7.32
2023-04-19T20:05:24.170Z,7.00
2023-04-19T20:10:22.306Z,7.38
2023-04-19T20:12:49.702Z,7.18
2023-04-19T20:15:17.208Z,6.88
2023-04-19T20:17:44.730Z,7.15
2023-04-19T20:20:13.042Z,6.78
2023-04-19T20:22:40.555Z,5.80
2023-04-19T20:25:08.305Z,5.93
2023-04-19T20:27:35.877Z,6.53
2023-04-19T20:30:03.572Z,5.85
2023-04-19T20:32:31.156Z,6.05
2023-04-19T20:34:59.415Z,6.05
2023-04-19T20:37:27.289Z,6.38
2023-04-19T20:39:57.850Z,6.97
2023-04-19T20:42:25.390Z,7.45
2023-04-19T20:44:52.910Z,7.30
2023-04-19T20:47:20.499Z,7.22
2023-04-19T20:49:47.916Z,7.03
2023-04-19T20:52:15.430Z,7.38
2023-04-19T20:54:42.851Z,7.68
2023-04-19T20:57:10.796Z,7.95
2023-04-19T20:59:39.317Z,8.02
2023-04-19T21:02:06.899Z,7.35
2023-04-19T21:04:34.534Z,7.32
2023-04-19T21:07:02.151Z,7.80
2023-04-19T21:09:29.606Z,6.97
2023-04-19T21:11:58.364Z,6.93
2023-04-19T21:14:25.934Z,7.00
2023-04-19T21:16:53.348Z,6.65
2023-04-19T21:19:21.053Z,6.20
2023-04-19T21:21:48.421Z,6.07
2023-04-19T21:24:16.029Z,5.93
2023-04-19T21:26:43.491Z,5.93
2023-04-19T21:29:11.620Z,5.53
2023-04-19T21:31:39.017Z,5.75
2023-04-19T21:34:06.480Z,5.82
2023-04-19T21:36:33.848Z,6.30
2023-04-19T21:39:01.375Z,7.00
2023-04-19T21:41:28.766Z,6.47
2023-04-19T21:43:56.299Z,6.95
2023-04-19T21:46:23.668Z,7.07
2023-04-19T21:48:52.416Z,6.53
2023-04-19T21:51:21.002Z,7.18
2023-04-19T21:53:48.392Z,8.77
2023-04-19T21:56:15.899Z,9.05
2023-04-19T21:58:43.313Z,10.77
2023-04-19T22:01:11.224Z,11.90
2023-04-19T22:03:39.513Z,11.95
2023-04-19T22:06:08.523Z,12.32
2023-04-19T22:08:36.381Z,10.90
2023-04-19T22:11:03.956Z,11.43
2023-04-19T22:13:33.433Z,10.93
2023-04-19T22:16:02.494Z,11.30
2023-04-19T22:18:30.010Z,11.20
2023-04-19T22:20:57.450Z,10.93
2023-04-19T22:23:24.844Z,9.93
2023-04-19T22:25:52.331Z,9.50
2023-04-19T22:28:19.685Z,10.07
2023-04-19T22:30:47.133Z,9.82
2023-04-19T22:33:14.558Z,9.68
2023-04-19T22:35:42.020Z,9.15
2023-04-19T22:38:09.488Z,8.15
2023-04-19T22:40:36.915Z,8.23
2023-04-19T22:43:04.325Z,8.65
2023-04-19T22:45:31.783Z,8.25
2023-04-19T22:47:59.295Z,8.40
2023-04-19T22:50:26.869Z,8.77
2023-04-19T22:52:54.307Z,8.23
2023-04-19T22:55:21.684Z,9.05
2023-04-19T22:57:49.133Z,7.28
2023-04-19T23:00:18.031Z,7.70
2023-04-19T23:02:45.846Z,7.97
2023-04-19T23:05:13.538Z,8.48
2023-04-19T23:07:43.056Z,8.18
2023-04-19T23:10:10.764Z,8.88
2023-04-19T23:15:06.766Z,9.15
2023-04-19T23:17:34.634Z,8.73
2023-04-19T23:20:02.179Z,8.48
2023-04-19T23:22:29.684Z,8.70
2023-04-19T23:24:57.079Z,8.35
2023-04-19T23:27:24.582Z,8.60
2023-04-19T23:29:51.988Z,8.35
2023-04-19T23:32:19.504Z,8.32
2023-04-19T23:34:47.014Z,10.00
2023-04-19T23:37:14.459Z,8.95
2023-04-19T23:39:41.938Z,8.93
2023-04-19T23:42:09.462Z,9.60
2023-04-19T23:44:36.968Z,9.02
2023-04-19T23:47:04.758Z,9.40
2023-04-19T23:49:32.811Z,8.82
2023-04-19T23:52:00.333Z,9.73
2023-04-19T23:54:28.008Z,10.20
2023-04-19T23:56:57.752Z,9.30
2023-04-19T23:59:26.911Z,9.60
